Time;durP1;ratioP1;P1;durP2;ratioP2;P2;SDS_P1;SDS_P2;PMS_P1;PMS_P2;Temp;Humidity;BMP_temperature;BMP_pressure;BME280_temperature;BME280_humidity;BME280_pressure;Samples;Min_cycle;Max_cycle;Signal;HPM_P1;HPM_P2
2022/12/26 00:02:25;;;;;;;21.02;11.70;;;;;;;6.05;84.92;100320.38;6221554;23;20012;-70
2022/12/26 00:04:51;;;;;;;22.40;11.50;;;;;;;6.11;84.89;100321.63;6223149;23;20358;-69
2022/12/26 00:07:19;;;;;;;21.77;11.55;;;;;;;6.06;85.02;100314.06;6224398;23;20025;-69
2022/12/26 00:09:46;;;;;;;17.13;11.45;;;;;;;6.08;84.85;100322.75;6225427;23;20335;-70
2022/12/26 00:12:12;;;;;;;21.08;11.38;;;;;;;6.17;84.48;100311.25;6223895;23;20072;-70
2022/12/26 00:14:39;;;;;;;23.40;11.60;;;;;;;6.07;84.97;100315.72;6221961;23;20454;-70
2022/12/26 00:17:06;;;;;;;18.23;11.77;;;;;;;6.13;85.08;100315.19;6223619;23;20028;-70
2022/12/26 00:19:32;;;;;;;22.10;11.38;;;;;;;6.06;85.13;100313.22;6223734;23;20072;-70
2022/12/26 00:21:59;;;;;;;25.00;12.77;;;;;;;6.04;85.14;100283.22;6221691;23;20025;-71
2022/12/26 00:24:25;;;;;;;14.95;10.80;;;;;;;6.00;85.21;100285.31;6221720;23;20027;-70
2022/12/26 00:26:52;;;;;;;22.65;11.35;;;;;;;6.23;84.82;100284.03;6212280;23;20029;-72
2022/12/26 00:29:19;;;;;;;20.35;11.07;;;;;;;6.12;84.70;100281.53;6220087;23;20076;-70
2022/12/26 00:31:45;;;;;;;26.30;12.15;;;;;;;6.06;85.15;100292.75;6218151;23;20084;-70
2022/12/26 00:34:12;;;;;;;16.70;10.63;;;;;;;6.16;84.94;100292.75;6217302;23;20017;-70
2022/12/26 00:36:38;;;;;;;17.95;11.07;;;;;;;5.98;85.47;100295.28;6217485;23;20043;-70
2022/12/26 00:39:05;;;;;;;20.98;11.57;;;;;;;6.26;85.00;100304.28;6218134;23;20346;-70
2022/12/26 00:41:32;;;;;;;26.77;11.60;;;;;;;6.22;85.04;100293.03;6218761;23;20091;-71
2022/12/26 00:43:59;;;;;;;19.70;10.27;;;;;;;6.12;85.30;100288.69;6216762;23;20031;-69
2022/12/26 00:46:26;;;;;;;19.92;10.48;;;;;;;6.27;84.71;100284.63;6215822;23;20492;-70
2022/12/26 00:48:53;;;;;;;18.42;10.77;;;;;;;6.15;85.05;100270.59;6216221;23;20051;-70
2022/12/26 00:51:20;;;;;;;18.35;11.20;;;;;;;6.15;85.12;100272.44;6214315;23;20112;-70
2022/12/26 00:53:46;;;;;;;19.95;10.02;;;;;;;6.09;85.45;100273.00;6213992;23;20028;-70
2022/12/26 00:56:14;;;;;;;18.90;9.50;;;;;;;6.07;85.50;100277.63;6215125;23;20100;-71
2022/12/26 00:58:40;;;;;;;20.02;10.85;;;;;;;6.27;84.96;100275.81;6215064;23;20081;-70
2022/12/26 01:01:20;;;;;;;16.73;9.32;;;;;;;6.19;85.32;100264.00;6207821;23;20016;-69
2022/12/26 01:03:47;;;;;;;18.45;10.02;;;;;;;6.28;84.80;100253.50;6213531;23;20024;-70
2022/12/26 01:06:15;;;;;;;23.90;10.40;;;;;;;6.28;85.13;100264.16;6215786;23;20469;-70
2022/12/26 01:08:43;;;;;;;17.30;10.20;;;;;;;6.22;84.74;100262.91;6213574;23;20047;-71
2022/12/26 01:11:12;;;;;;;16.75;9.60;;;;;;;6.22;84.92;100252.25;6215190;23;20100;-70
2022/12/26 01:13:39;;;;;;;19.48;9.75;;;;;;;6.32;84.85;100254.88;6211083;23;20021;-69
2022/12/26 01:16:06;;;;;;;19.08;9.13;;;;;;;6.35;84.51;100249.28;6215621;23;20027;-71
2022/12/26 01:18:33;;;;;;;14.52;8.93;;;;;;;6.20;85.00;100249.69;6215902;23;20445;-70
2022/12/26 01:21:03;;;;;;;15.90;8.95;;;;;;;6.25;84.69;100246.59;6215200;23;20027;-70
2022/12/26 01:23:29;;;;;;;23.55;8.88;;;;;;;6.44;84.46;100241.25;6215235;23;20021;-72
2022/12/26 01:25:56;;;;;;;13.32;8.65;;;;;;;6.31;84.43;100250.56;6213842;23;20029;-71
2022/12/26 01:28:42;;;;;;;14.23;8.88;;;;;;;6.28;84.45;100254.34;6214416;23;20036;-69
2022/12/26 01:31:09;;;;;;;13.30;8.63;;;;;;;6.30;84.51;100256.88;6214588;23;20048;-69
2022/12/26 01:33:35;;;;;;;15.63;8.80;;;;;;;6.37;84.24;100263.31;6215797;23;20021;-70
2022/12/26 01:36:02;;;;;;;16.33;8.80;;;;;;;6.32;84.68;100244.22;6213975;23;20076;-70
2022/12/26 01:38:29;;;;;;;15.60;8.38;;;;;;;6.59;83.98;100254.94;6213905;23;20032;-70
2022/12/26 01:44:00;;;;;;;14.90;8.00;;;;;;;6.48;83.86;100247.13;6209510;23;20056;-70
2022/12/26 01:46:36;;;;;;;15.27;8.93;;;;;;;6.68;82.90;100235.41;6213778;23;20041;-71
2022/12/26 01:49:16;;;;;;;18.33;8.88;;;;;;;6.39;83.75;100230.22;6212947;23;20329;-71
2022/12/26 01:51:49;;;;;;;17.70;8.90;;;;;;;6.42;83.87;100239.72;6213089;23;20025;-71
2022/12/26 01:54:16;;;;;;;15.38;7.80;;;;;;;6.39;83.04;100248.00;6214037;23;20025;-70
2022/12/26 01:57:05;;;;;;;14.00;8.35;;;;;;;6.41;83.81;100232.72;6216628;23;20019;-71
2022/12/26 01:59:36;;;;;;;15.05;8.38;;;;;;;6.36;84.06;100235.00;6218830;23;20020;-71
2022/12/26 02:02:03;;;;;;;14.20;8.82;;;;;;;6.36;83.87;100243.81;6213650;23;20020;-71
2022/12/26 02:07:23;;;;;;;16.73;9.00;;;;;;;6.29;84.05;100223.19;6213667;23;20421;-68
2022/12/26 02:09:49;;;;;;;15.85;8.18;;;;;;;6.33;84.34;100230.78;6214171;23;20028;-71
2022/12/26 02:12:24;;;;;;;11.93;8.68;;;;;;;6.23;84.07;100240.59;6212868;23;20031;-70
2022/12/26 02:15:10;;;;;;;15.15;8.55;;;;;;;6.42;84.13;100234.38;6211784;23;20021;-71
2022/12/26 02:17:37;;;;;;;15.70;8.35;;;;;;;6.45;83.49;100242.09;6211759;23;20075;-71
2022/12/26 02:20:24;;;;;;;12.85;8.02;;;;;;;6.34;83.80;100234.28;6213441;23;20020;-71
2022/12/26 02:23:00;;;;;;;14.80;8.80;;;;;;;6.46;83.61;100239.31;6211960;23;20016;-71
2022/12/26 02:25:56;;;;;;;12.73;7.72;;;;;;;6.55;83.80;100218.91;6213102;23;20096;-72
2022/12/26 02:28:51;;;;;;;13.90;7.75;;;;;;;6.55;83.06;100229.56;6204289;23;20019;-70
2022/12/26 02:31:34;;;;;;;13.60;8.40;;;;;;;6.51;83.21;100233.53;6192723;23;20020;-70
2022/12/26 02:34:03;;;;;;;16.48;8.25;;;;;;;6.65;83.00;100219.72;6211049;23;20025;-71
2022/12/26 02:37:02;;;;;;;14.32;7.80;;;;;;;6.69;82.84;100229.09;6213474;23;20108;-71
2022/12/26 02:39:47;;;;;;;12.73;8.35;;;;;;;6.46;83.82;100217.16;6214819;23;20099;-71
2022/12/26 02:42:29;;;;;;;12.77;8.15;;;;;;;6.59;83.46;100217.63;6213056;23;20025;-71
2022/12/26 02:48:14;;;;;;;15.98;8.80;;;;;;;6.68;82.78;100211.44;6214047;23;20029;-70
2022/12/26 03:14:52;;;;;;;18.08;10.93;;;;;;;6.68;83.06;100234.59;6216789;23;20028;-71
2022/12/26 03:17:38;;;;;;;14.23;8.57;;;;;;;6.49;82.83;100243.47;6214840;23;20099;-71
2022/12/26 03:20:14;;;;;;;12.18;8.00;;;;;;;6.65;83.21;100233.03;6217767;23;20080;-70
2022/12/26 03:22:45;;;;;;;15.45;7.95;;;;;;;6.73;82.82;100224.31;6216996;23;20091;-69
2022/12/26 03:28:03;;;;;;;11.52;7.55;;;;;;;6.69;83.49;100233.59;6227156;23;20026;-70
2022/12/26 03:30:48;;;;;;;13.13;7.82;;;;;;;6.74;82.66;100243.81;6222014;23;20072;-71
2022/12/26 03:36:28;;;;;;;14.13;8.15;;;;;;;6.88;82.68;100236.19;6219720;23;20335;-72
2022/12/26 03:39:12;;;;;;;13.10;7.47;;;;;;;6.89;82.58;100243.19;6219574;23;20035;-70
2022/12/26 04:19:53;;;;;;;;;;;;;;;6.84;82.23;100264.13;6219495;23;20027;-70
2022/12/26 04:45:53;;;;;;;15.20;5.95;;;;;;;6.93;82.31;100259.72;6218273;23;20027;-71
2022/12/26 04:51:05;;;;;;;11.85;5.95;;;;;;;6.96;81.90;100270.09;6214774;23;20487;-72
2022/12/26 04:53:31;;;;;;;16.30;6.13;;;;;;;7.06;81.94;100270.06;6216666;23;20052;-71
2022/12/26 04:55:58;;;;;;;12.38;6.50;;;;;;;7.09;81.34;100269.75;6220641;23;20484;-71
2022/12/26 04:58:27;;;;;;;16.60;6.45;;;;;;;7.03;81.80;100276.50;6217788;23;20076;-71
2022/12/26 05:09:32;;;;;;;7.43;5.68;;;;;;;6.97;81.94;100266.44;6219612;23;20020;-71
2022/12/26 05:09:34;;;;;;;10.32;6.07;;;;;;;6.99;82.19;100269.81;6197654;23;20171;-72
2022/12/26 05:12:03;;;;;;;10.48;6.25;;;;;;;6.97;81.99;100263.75;6221031;23;20107;-71
2022/12/26 05:14:30;;;;;;;9.23;5.60;;;;;;;7.16;81.42;100271.69;6221876;23;20465;-71
2022/12/26 05:30:57;;;;;;;10.00;5.85;;;;;;;7.09;81.87;100289.25;6222919;23;20372;-72
2022/12/26 05:36:10;;;;;;;7.70;5.47;;;;;;;7.12;82.09;100290.81;6222593;23;20168;-71
2022/12/26 05:38:36;;;;;;;9.02;5.78;;;;;;;7.14;81.67;100294.97;6221839;23;20021;-73
2022/12/26 05:41:03;;;;;;;8.63;5.97;;;;;;;7.02;82.14;100296.19;6221979;23;20028;-71
2022/12/26 05:43:30;;;;;;;11.70;6.18;;;;;;;6.99;82.13;100301.81;6221569;23;20013;-71
2022/12/26 05:45:57;;;;;;;10.63;6.28;;;;;;;7.17;81.57;100305.34;6220970;23;20573;-71
2022/12/26 05:48:23;;;;;;;9.23;5.45;;;;;;;7.12;81.75;100307.66;6221097;23;20389;-71
2022/12/26 05:50:50;;;;;;;8.82;5.22;;;;;;;7.29;81.32;100313.16;6221502;23;20048;-72
2022/12/26 05:53:16;;;;;;;10.93;5.32;;;;;;;7.13;81.67;100297.81;6222415;23;20048;-71
2022/12/26 05:55:43;;;;;;;6.88;5.13;;;;;;;7.06;81.76;100302.91;6225017;23;20013;-72
2022/12/26 05:58:10;;;;;;;11.27;5.57;;;;;;;7.20;81.27;100314.91;6213993;23;20080;-71
2022/12/26 06:00:36;;;;;;;12.18;5.72;;;;;;;7.24;80.95;100320.78;6220156;23;20032;-71
2022/12/26 06:03:03;;;;;;;10.93;5.18;;;;;;;7.06;81.76;100310.06;6220717;23;20092;-71
2022/12/26 06:05:29;;;;;;;9.07;5.22;;;;;;;7.31;80.70;100312.03;6221263;23;20409;-72
2022/12/26 06:07:56;;;;;;;8.82;5.00;;;;;;;7.14;81.07;100308.31;6221788;23;20048;-72
2022/12/26 06:10:25;;;;;;;7.22;5.28;;;;;;;7.06;80.80;100310.06;6224075;23;20044;-71
2022/12/26 06:12:52;;;;;;;8.48;4.93;;;;;;;7.24;80.98;100318.13;6224528;23;20021;-72
2022/12/26 06:15:18;;;;;;;8.00;5.03;;;;;;;7.22;80.92;100317.41;6227817;23;20020;-71
2022/12/26 06:17:45;;;;;;;9.93;5.20;;;;;;;7.30;80.13;100307.69;6228642;23;20076;-68
2022/12/26 06:20:11;;;;;;;6.32;4.22;;;;;;;7.18;80.37;100309.69;6225870;23;20023;-71
2022/12/26 06:22:38;;;;;;;7.55;4.43;;;;;;;7.34;80.20;100306.41;6225748;23;20020;-71
2022/12/26 06:25:05;;;;;;;8.25;5.18;;;;;;;7.48;79.94;100305.06;6224711;23;20028;-72
2022/12/26 06:27:32;;;;;;;9.07;4.90;;;;;;;7.29;79.99;100307.81;6222868;23;20461;-72
2022/12/26 06:29:58;;;;;;;7.90;3.90;;;;;;;7.38;79.82;100313.09;6216485;23;20025;-73
2022/12/26 06:32:25;;;;;;;11.65;4.45;;;;;;;7.33;80.02;100307.41;6223394;23;20073;-72
2022/12/26 06:34:51;;;;;;;8.60;4.82;;;;;;;7.36;80.01;100319.56;6225171;23;20047;-72
2022/12/26 06:37:18;;;;;;;6.95;5.47;;;;;;;7.32;79.79;100334.22;6223608;23;20088;-71
2022/12/26 06:39:45;;;;;;;5.85;4.38;;;;;;;7.21;80.98;100348.59;6223393;23;20024;-71
2022/12/26 06:42:11;;;;;;;8.85;5.00;;;;;;;7.34;80.14;100337.59;6223996;23;20035;-71
2022/12/26 06:44:38;;;;;;;7.78;4.97;;;;;;;7.35;80.37;100340.09;6223143;22;20020;-70
2022/12/26 06:47:04;;;;;;;7.43;5.22;;;;;;;7.51;79.86;100346.63;6225502;23;20031;-72
2022/12/26 06:49:31;;;;;;;7.38;5.07;;;;;;;7.37;80.10;100353.31;6224630;23;20021;-71
2022/12/26 06:51:58;;;;;;;14.85;5.15;;;;;;;7.25;80.24;100357.97;6223887;23;20024;-71
2022/12/26 06:54:25;;;;;;;7.40;4.80;;;;;;;7.35;80.05;100368.59;6223652;23;20036;-71
2022/12/26 06:56:51;;;;;;;10.38;4.53;;;;;;;7.38;80.08;100362.97;6223338;23;20103;-72
2022/12/26 06:59:18;;;;;;;7.50;4.95;;;;;;;7.34;80.33;100373.09;6222957;23;20095;-70
2022/12/26 07:01:44;;;;;;;8.63;5.00;;;;;;;7.24;80.62;100382.16;6224732;23;20024;-71
2022/12/26 07:04:12;;;;;;;7.50;4.80;;;;;;;7.25;80.62;100368.66;6223464;23;20016;-70
2022/12/26 07:06:38;;;;;;;6.63;4.55;;;;;;;7.21;80.51;100372.59;6215162;23;20051;-72
2022/12/26 07:09:13;;;;;;;6.88;4.75;;;;;;;7.32;80.38;100374.22;6222404;23;20099;-72
2022/12/26 07:11:42;;;;;;;9.77;5.05;;;;;;;7.27;80.70;100379.19;6221650;23;20040;-72
2022/12/26 07:14:09;;;;;;;7.63;4.90;;;;;;;7.37;80.35;100380.00;6220777;23;20083;-73
2022/12/26 07:16:37;;;;;;;10.25;4.82;;;;;;;7.36;80.36;100380.94;6219907;23;20095;-72
2022/12/26 07:19:05;;;;;;;9.65;5.18;;;;;;;7.23;80.38;100385.81;6220436;23;20378;-73
2022/12/26 07:21:32;;;;;;;12.18;4.93;;;;;;;7.30;80.53;100384.25;6218864;23;20017;-71
2022/12/26 07:24:07;;;;;;;5.90;4.43;;;;;;;7.48;80.06;100379.78;6230058;23;20080;-72
2022/12/26 07:26:34;;;;;;;11.02;4.70;;;;;;;7.24;80.36;100385.66;6221504;23;20020;-73
2022/12/26 07:29:00;;;;;;;7.25;5.03;;;;;;;7.40;79.92;100377.88;6212028;23;20024;-72
2022/12/26 07:31:27;;;;;;;8.02;5.20;;;;;;;7.33;80.20;100379.44;6212309;23;20091;-72
2022/12/26 07:33:55;;;;;;;7.05;4.68;;;;;;;7.35;79.94;100374.78;6206382;23;20028;-71
2022/12/26 07:36:23;;;;;;;7.65;4.60;;;;;;;7.49;79.81;100381.47;6211445;23;20339;-70
2022/12/26 07:38:50;;;;;;;8.02;5.03;;;;;;;7.36;79.64;100375.63;6210082;23;20488;-72
2022/12/26 07:44:04;;;;;;;9.88;4.68;;;;;;;7.34;79.92;100374.94;6212194;23;20044;-73
2022/12/26 07:46:31;;;;;;;9.23;4.60;;;;;;;7.24;80.83;100374.16;6212931;23;20091;-71
2022/12/26 07:48:58;;;;;;;7.35;5.15;;;;;;;7.41;80.12;100374.19;6212488;23;20034;-72
2022/12/26 07:51:25;;;;;;;7.50;4.65;;;;;;;7.25;80.59;100391.81;6211827;23;20020;-71
2022/12/26 07:53:52;;;;;;;7.85;4.75;;;;;;;7.07;80.75;100389.91;6212663;23;20063;-71
2022/12/26 07:56:18;;;;;;;13.60;5.10;;;;;;;7.31;80.37;100407.25;6212159;23;20354;-72
2022/12/26 07:58:49;;;;;;;5.32;4.57;;;;;;;7.13;80.93;100401.84;6213111;23;20027;-72
2022/12/26 08:01:16;;;;;;;5.82;4.80;;;;;;;7.23;80.60;100404.50;6211542;23;20031;-72
2022/12/26 08:03:43;;;;;;;6.43;4.50;;;;;;;7.24;81.08;100412.34;6211030;23;20103;-73
2022/12/26 08:06:10;;;;;;;9.23;5.00;;;;;;;7.22;80.71;100408.13;6210948;23;20020;-73
2022/12/26 08:08:37;;;;;;;7.93;4.30;;;;;;;7.24;80.97;100403.50;6211740;23;20514;-72
2022/12/26 08:11:06;;;;;;;6.10;4.10;;;;;;;7.37;80.68;100401.34;6211283;23;20087;-73
2022/12/26 08:13:33;;;;;;;5.60;4.35;;;;;;;7.12;80.71;100395.69;6211644;23;20027;-73
2022/12/26 08:16:05;;;;;;;10.38;4.63;;;;;;;7.31;80.05;100393.91;6210830;23;20020;-73
2022/12/26 08:18:33;;;;;;;9.18;4.00;;;;;;;7.33;80.50;100391.94;6211062;23;20020;-72
2022/12/26 08:20:59;;;;;;;7.93;4.07;;;;;;;7.32;80.28;100400.91;6210701;23;20024;-71
2022/12/26 08:23:26;;;;;;;8.20;3.85;;;;;;;7.42;80.30;100393.72;6211347;23;20017;-72
2022/12/26 08:25:52;;;;;;;7.35;4.60;;;;;;;7.32;80.56;100391.09;6211979;23;20021;-72
2022/12/26 08:28:19;;;;;;;5.95;3.70;;;;;;;7.34;80.74;100402.47;6212758;23;20418;-72
2022/12/26 08:30:46;;;;;;;5.70;3.70;;;;;;;7.37;80.13;100402.19;6211257;23;20104;-72
2022/12/26 08:33:12;;;;;;;9.23;3.50;;;;;;;7.34;80.25;100406.97;6210007;23;20349;-73
2022/12/26 08:35:39;;;;;;;7.32;3.55;;;;;;;7.48;79.86;100406.47;6210257;23;20017;-72
2022/12/26 08:38:06;;;;;;;7.88;4.00;;;;;;;7.38;80.33;100397.66;6210356;23;20027;-72
2022/12/26 08:40:33;;;;;;;5.13;3.45;;;;;;;7.52;79.87;100399.84;6209567;23;20468;-72
2022/12/26 08:43:10;;;;;;;6.18;3.35;;;;;;;7.64;79.47;100398.69;6208790;23;20421;-72
2022/12/26 08:46:07;;;;;;;11.88;3.30;;;;;;;7.42;80.11;100404.38;6207589;23;20464;-72
2022/12/26 08:48:35;;;;;;;9.82;3.72;;;;;;;7.53;79.42;100414.88;6219734;23;20024;-72
2022/12/26 08:51:05;;;;;;;4.75;3.90;;;;;;;7.53;80.27;100404.19;6210776;23;20031;-72
2022/12/26 08:53:34;;;;;;;7.70;4.10;;;;;;;7.41;80.24;100402.72;6209935;23;20023;-72
2022/12/26 08:56:03;;;;;;;9.25;4.38;;;;;;;7.46;80.46;100411.09;6210691;23;20103;-73
2022/12/26 08:58:31;;;;;;;5.95;4.22;;;;;;;7.30;80.68;100400.25;6207223;23;20021;-73
2022/12/26 09:01:11;;;;;;;11.68;4.70;;;;;;;7.32;80.49;100403.59;6209976;23;20363;-72
2022/12/26 09:03:38;;;;;;;8.02;5.00;;;;;;;7.50;80.70;100408.97;6211148;22;20071;-70
2022/12/26 09:06:05;;;;;;;10.15;5.45;;;;;;;7.66;79.95;100423.38;6211614;23;20020;-73
2022/12/26 09:08:36;;;;;;;9.00;4.55;;;;;;;7.62;79.57;100426.50;6209919;23;20100;-72
2022/12/26 09:11:14;;;;;;;8.88;4.85;;;;;;;7.58;79.60;100436.63;6210154;23;20097;-74
2022/12/26 09:13:42;;;;;;;7.95;5.10;;;;;;;7.60;80.35;100441.81;6209345;23;20349;-73
2022/12/26 09:16:21;;;;;;;8.98;5.65;;;;;;;7.58;80.28;100439.31;6210065;23;20016;-74
2022/12/26 09:18:51;;;;;;;8.30;4.78;;;;;;;7.52;80.43;100449.72;6205577;23;20350;-73
2022/12/26 09:21:18;;;;;;;9.52;5.60;;;;;;;7.64;79.77;100445.91;6209385;23;20153;-72
2022/12/26 09:23:44;;;;;;;6.65;4.95;;;;;;;7.54;80.20;100455.78;6209942;23;20032;-73
2022/12/26 09:26:18;;;;;;;7.00;4.82;;;;;;;7.82;79.54;100453.94;6210551;23;20076;-71
2022/12/26 09:28:46;;;;;;;14.43;5.65;;;;;;;7.65;79.57;100444.91;6210645;23;20338;-74
2022/12/26 09:31:16;;;;;;;9.73;5.47;;;;;;;7.65;79.76;100452.91;6210535;23;20092;-72
2022/12/26 09:33:43;;;;;;;9.20;5.10;;;;;;;7.72;79.27;100453.16;6210031;23;20038;-73
2022/12/26 09:36:13;;;;;;;6.75;4.50;;;;;;;7.69;78.89;100453.44;6209805;23;20031;-72
2022/12/26 09:38:41;;;;;;;7.28;4.65;;;;;;;7.68;79.32;100449.94;6209550;23;20020;-72
2022/12/26 09:41:38;;;;;;;8.63;4.32;;;;;;;7.83;78.95;100440.44;6208956;23;20024;-73
2022/12/26 09:44:22;;;;;;;11.70;5.10;;;;;;;7.89;78.23;100445.22;6209716;23;20095;-72
2022/12/26 09:47:25;;;;;;;7.25;4.57;;;;;;;7.75;78.65;100447.53;6210286;23;20035;-74
2022/12/26 09:50:13;;;;;;;7.60;4.72;;;;;;;7.85;77.78;100448.34;6210462;23;20016;-72
2022/12/26 09:52:42;;;;;;;10.10;5.32;;;;;;;7.74;78.70;100440.47;6206994;23;20472;-73
2022/12/26 09:55:33;;;;;;;7.22;4.65;;;;;;;7.78;77.97;100448.06;6209944;23;20461;-73
2022/12/26 09:58:26;;;;;;;12.02;4.85;;;;;;;7.91;77.71;100450.41;6211845;23;20055;-73
2022/12/26 10:01:08;;;;;;;7.97;5.10;;;;;;;7.84;77.56;100452.81;6197026;23;20027;-73
2022/12/26 10:03:40;;;;;;;7.93;4.50;;;;;;;7.95;78.19;100454.47;6204667;23;20043;-73
2022/12/26 10:06:18;;;;;;;14.45;7.65;;;;;;;7.96;77.79;100444.63;6210369;23;20017;-72
2022/12/26 10:09:14;;;;;;;8.60;5.20;;;;;;;7.92;78.12;100465.47;6212158;23;21548;-73
2022/12/26 10:11:57;;;;;;;8.50;4.55;;;;;;;7.93;77.84;100474.31;6211040;23;20332;-74
2022/12/26 10:14:42;;;;;;;7.63;4.60;;;;;;;7.79;78.38;100475.59;6211410;23;20095;-74
2022/12/26 10:17:39;;;;;;;7.65;4.97;;;;;;;7.98;77.46;100480.03;6211896;23;20099;-74
2022/12/26 10:20:06;;;;;;;7.05;3.55;;;;;;;8.01;77.71;100485.91;6212587;23;20044;-72
2022/12/26 10:23:07;;;;;;;6.97;4.68;;;;;;;7.81;77.96;100486.97;6212115;23;20402;-74
2022/12/26 10:25:46;;;;;;;7.65;4.38;;;;;;;8.01;77.77;100480.56;6201734;23;20020;-74
2022/12/26 10:28:32;;;;;;;7.25;4.63;;;;;;;7.74;77.81;100485.88;6211362;23;20024;-74
2022/12/26 10:31:04;;;;;;;4.53;3.60;;;;;;;7.88;78.04;100482.75;6211596;23;20021;-73
2022/12/26 10:33:52;;;;;;;8.13;3.22;;;;;;;8.19;77.10;100466.41;6210548;23;20073;-72
2022/12/26 10:36:34;;;;;;;4.97;3.78;;;;;;;8.12;77.02;100468.81;6207993;23;20016;-72
2022/12/26 10:39:04;;;;;;;5.93;3.65;;;;;;;8.16;76.28;100475.56;6198682;23;20044;-74
2022/12/26 10:41:43;;;;;;;5.13;3.80;;;;;;;7.95;77.42;100470.50;6212017;23;20023;-74
2022/12/26 10:44:11;;;;;;;6.22;3.30;;;;;;;7.93;77.30;100463.63;6209001;23;20039;-73
2022/12/26 10:47:02;;;;;;;10.23;3.28;;;;;;;7.96;77.18;100463.31;6212277;23;20052;-73
2022/12/26 10:49:29;;;;;;;5.80;4.10;;;;;;;7.72;77.41;100458.50;6212201;23;20025;-74
2022/12/26 10:51:59;;;;;;;6.45;4.07;;;;;;;7.97;76.52;100471.19;6213547;23;20040;-71
2022/12/26 10:54:28;;;;;;;6.88;4.78;;;;;;;7.92;76.55;100468.13;6207606;23;20031;-69
2022/12/26 10:56:57;;;;;;;6.30;3.92;;;;;;;7.88;76.47;100472.06;6212945;23;20501;-74
2022/12/26 10:59:37;;;;;;;7.65;3.20;;;;;;;7.72;76.86;100463.84;6209702;23;20031;-74
2022/12/26 11:02:14;;;;;;;5.50;3.55;;;;;;;7.96;76.25;100472.19;6212433;23;20445;-73
2022/12/26 11:04:57;;;;;;;3.83;3.00;;;;;;;7.96;76.03;100474.00;6212280;23;20195;-74
2022/12/26 11:07:53;;;;;;;4.72;2.90;;;;;;;7.82;75.79;100475.31;6211891;23;20083;-74
2022/12/26 11:10:24;;;;;;;5.43;3.58;;;;;;;7.83;75.83;100483.16;6209836;23;20042;-74
2022/12/26 11:12:54;;;;;;;6.63;3.80;;;;;;;7.77;76.13;100473.06;6211367;23;20044;-72
2022/12/26 11:15:32;;;;;;;4.70;3.22;;;;;;;7.75;76.15;100482.25;6208961;23;20020;-74
2022/12/26 11:18:14;;;;;;;5.30;2.63;;;;;;;7.74;75.67;100481.41;6223309;22;20418;-72
2022/12/26 11:20:42;;;;;;;7.15;4.35;;;;;;;7.68;75.75;100483.81;6207202;23;20021;-74
2022/12/26 11:23:20;;;;;;;7.20;3.78;;;;;;;7.70;76.08;100480.00;6212401;23;20036;-73
2022/12/26 11:25:50;;;;;;;5.55;2.72;;;;;;;7.72;75.55;100485.19;6212507;23;20029;-74
2022/12/26 11:28:26;;;;;;;4.47;3.45;;;;;;;7.79;75.50;100471.09;6211489;23;20020;-72
2022/12/26 11:30:53;;;;;;;4.50;3.30;;;;;;;7.75;75.32;100459.03;6212251;23;20030;-74
2022/12/26 11:33:27;;;;;;;8.05;3.75;;;;;;;7.59;75.42;100457.00;6211922;23;20335;-75
2022/12/26 11:35:58;;;;;;;4.40;2.88;;;;;;;7.57;75.67;100445.63;6211482;23;20096;-74
2022/12/26 11:38:34;;;;;;;3.60;2.75;;;;;;;7.68;75.39;100444.59;6210868;23;20020;-75
2022/12/26 11:41:35;;;;;;;8.13;2.97;;;;;;;7.61;75.95;100455.03;6209805;23;20079;-74
2022/12/26 11:44:11;;;;;;;7.53;3.30;;;;;;;7.59;76.08;100459.66;6209858;23;20044;-73
2022/12/26 11:46:42;;;;;;;5.35;2.85;;;;;;;7.66;75.85;100458.09;6211863;23;20354;-74
2022/12/26 11:49:16;;;;;;;;;;;;;;;7.73;75.56;100466.34;6211962;23;20025;-75
2022/12/26 11:51:46;;;;;;;4.45;2.83;;;;;;;7.68;75.99;100470.47;6210703;23;19919;-73
2022/12/26 11:54:19;;;;;;;6.13;3.10;;;;;;;7.52;76.45;100471.09;6211194;23;20017;-74
2022/12/26 11:56:47;;;;;;;5.38;3.20;;;;;;;7.57;76.59;100472.34;6209836;23;20494;-75
2022/12/26 11:59:19;;;;;;;7.88;3.40;;;;;;;7.62;76.42;100469.22;6210869;23;20048;-73
2022/12/26 12:02:08;;;;;;;5.78;3.50;;;;;;;7.70;76.23;100463.13;6210007;23;20028;-74
2022/12/26 12:04:35;;;;;;;9.07;3.65;;;;;;;7.56;76.47;100477.81;6208894;23;20511;-75
2022/12/26 12:07:12;;;;;;;7.47;3.90;;;;;;;7.69;76.55;100483.66;6208199;23;20025;-73
2022/12/26 12:10:01;;;;;;;6.05;4.20;;;;;;;7.55;76.44;100484.97;6209509;23;20051;-73
2022/12/26 12:12:46;;;;;;;5.95;4.07;;;;;;;7.73;76.25;100473.53;6209743;23;20412;-69
2022/12/26 12:15:27;;;;;;;5.65;4.00;;;;;;;7.74;75.98;100469.84;6210422;23;20046;-72
2022/12/26 12:18:12;;;;;;;6.63;4.35;;;;;;;7.69;76.32;100458.78;6210909;23;20103;-74
2022/12/26 12:20:55;;;;;;;8.73;4.28;;;;;;;7.74;75.92;100468.06;6213371;23;20028;-72
2022/12/26 12:23:52;;;;;;;6.22;3.95;;;;;;;7.63;76.23;100463.72;6209630;23;20020;-73
2022/12/26 12:26:56;;;;;;;8.18;4.10;;;;;;;7.65;76.55;100455.56;6210564;23;20034;-74
2022/12/26 12:29:55;;;;;;;6.07;4.00;;;;;;;7.61;76.28;100452.38;6209776;23;20357;-72
2022/12/26 12:32:39;;;;;;;6.93;4.35;;;;;;;7.53;76.50;100452.25;6209124;23;20075;-74
2022/12/26 12:35:17;;;;;;;5.32;3.78;;;;;;;7.38;77.15;100446.53;6209433;23;20035;-74
2022/12/26 12:38:17;;;;;;;6.03;4.05;;;;;;;7.60;76.77;100428.47;6209367;23;20028;-74
2022/12/26 12:41:15;;;;;;;4.88;3.38;;;;;;;7.81;76.29;100436.22;6208466;23;20031;-74
2022/12/26 12:43:44;;;;;;;5.88;3.80;;;;;;;7.64;76.01;100437.88;6211310;23;20454;-74
2022/12/26 12:46:39;;;;;;;4.18;3.17;;;;;;;7.81;75.67;100447.78;6209299;23;20017;-74
2022/12/26 12:49:43;;;;;;;6.05;3.42;;;;;;;7.69;76.40;100440.09;6208195;23;20020;-75
2022/12/26 12:52:13;;;;;;;6.63;3.83;;;;;;;7.55;76.77;100441.44;6087657;23;20064;-74
2022/12/26 12:55:22;;;;;;;7.82;4.63;;;;;;;7.74;75.87;100440.47;6089311;23;20526;-72
2022/12/26 12:57:56;;;;;;;7.68;5.10;;;;;;;7.71;76.85;100457.66;6030127;23;20040;-74
2022/12/26 13:00:27;;;;;;;6.93;4.30;;;;;;;7.84;75.82;100451.97;6088859;23;20022;-73
2022/12/26 13:03:33;;;;;;;8.98;2.42;;;;;;;7.75;75.97;100450.19;6090495;23;20093;-74
2022/12/26 13:06:09;;;;;;;5.82;3.92;;;;;;;7.59;76.58;100457.00;6086932;23;20018;-73
2022/12/26 13:09:03;;;;;;;9.93;4.90;;;;;;;7.68;76.58;100449.09;6089005;23;20026;-74
2022/12/26 13:11:42;;;;;;;6.03;3.90;;;;;;;7.86;75.96;100450.03;6076182;23;20033;-73
2022/12/26 13:14:29;;;;;;;7.10;3.90;;;;;;;7.56;76.47;100445.78;6087173;23;20026;-75
2022/12/26 13:17:03;;;;;;;7.18;4.30;;;;;;;7.61;76.94;100440.84;6090521;23;20027;-75
2022/12/26 13:19:39;;;;;;;6.72;4.03;;;;;;;7.59;76.71;100448.97;6075410;23;20028;-72
2022/12/26 13:22:14;;;;;;;4.72;3.72;;;;;;;7.79;76.11;100440.91;6087973;23;20337;-73
2022/12/26 13:24:44;;;;;;;5.85;4.00;;;;;;;7.63;76.33;100450.38;6089585;23;20468;-73
2022/12/26 13:27:20;;;;;;;5.63;3.30;;;;;;;7.62;76.46;100448.69;6196980;23;20024;-74
2022/12/26 13:29:48;;;;;;;8.32;4.70;;;;;;;7.56;76.54;100457.28;6210999;23;20020;-73
2022/12/26 13:32:26;;;;;;;5.68;4.40;;;;;;;7.57;76.91;100453.66;6207971;23;20021;-73
2022/12/26 13:34:55;;;;;;;7.10;4.32;;;;;;;7.70;76.45;100455.97;6213139;23;20338;-73
2022/12/26 13:37:34;;;;;;;11.27;4.18;;;;;;;7.79;75.79;100451.56;6216462;23;20021;-73
2022/12/26 13:40:04;;;;;;;7.68;4.90;;;;;;;7.61;76.57;100447.03;6194084;23;20035;-74
2022/12/26 13:45:36;;;;;;;5.53;3.92;;;;;;;7.47;76.61;100463.53;6208132;23;20330;-75
2022/12/26 13:48:15;;;;;;;7.68;4.40;;;;;;;7.51;76.40;100453.41;6200382;23;20024;-74
2022/12/26 13:50:47;;;;;;;7.03;4.65;;;;;;;7.36;77.05;100463.69;6209277;23;20021;-73
2022/12/26 13:53:24;;;;;;;6.40;4.18;;;;;;;7.28;77.03;100456.41;6208553;23;20031;-74
2022/12/26 13:55:56;;;;;;;6.05;3.78;;;;;;;7.36;76.53;100453.00;6207492;23;20028;-74
2022/12/26 13:58:52;;;;;;;6.20;4.60;;;;;;;7.49;76.66;100458.88;6208347;23;20021;-75
2022/12/26 14:01:56;;;;;;;6.15;4.55;;;;;;;7.35;76.61;100467.34;6207465;23;20024;-75
2022/12/26 14:04:34;;;;;;;10.57;5.70;;;;;;;7.14;76.83;100483.56;6209115;23;20028;-72
2022/12/26 14:07:10;;;;;;;6.88;4.43;;;;;;;7.30;76.64;100480.28;6198087;23;20088;-72
2022/12/26 14:10:17;;;;;;;8.18;6.10;;;;;;;7.18;76.48;100482.28;6209505;23;20021;-73
2022/12/26 14:13:00;;;;;;;10.60;6.65;;;;;;;7.11;76.66;100479.34;6209082;23;20024;-73